sensor_id;sensor_type;location;lat;lon;timestamp;P1;durP1;ratioP1;P2;durP2;ratioP2
70532;SDS011;58088;51.186;17.130;2023-07-13T00:01:48;9.30;;;5.40;;
70532;SDS011;58088;51.186;17.130;2023-07-13T00:04:19;8.80;;;5.20;;
70532;SDS011;58088;51.186;17.130;2023-07-13T00:06:47;12.00;;;5.30;;
70532;SDS011;58088;51.186;17.130;2023-07-13T00:09:14;8.60;;;5.00;;
70532;SDS011;58088;51.186;17.130;2023-07-13T00:11:43;9.60;;;5.20;;
70532;SDS011;58088;51.186;17.130;2023-07-13T00:14:10;9.40;;;5.10;;
70532;SDS011;58088;51.186;17.130;2023-07-13T00:16:38;9.20;;;5.10;;
70532;SDS011;58088;51.186;17.130;2023-07-13T00:19:10;9.20;;;5.20;;
70532;SDS011;58088;51.186;17.130;2023-07-13T00:21:39;9.20;;;5.10;;
70532;SDS011;58088;51.186;17.130;2023-07-13T00:24:07;8.70;;;5.10;;
70532;SDS011;58088;51.186;17.130;2023-07-13T00:26:39;9.10;;;4.90;;
70532;SDS011;58088;51.186;17.130;2023-07-13T00:29:06;7.80;;;4.80;;
70532;SDS011;58088;51.186;17.130;2023-07-13T00:31:35;9.70;;;5.40;;
70532;SDS011;58088;51.186;17.130;2023-07-13T00:34:02;8.60;;;5.00;;
70532;SDS011;58088;51.186;17.130;2023-07-13T00:36:30;9.20;;;5.10;;
70532;SDS011;58088;51.186;17.130;2023-07-13T00:38:57;8.90;;;5.20;;
70532;SDS011;58088;51.186;17.130;2023-07-13T00:41:24;8.80;;;5.30;;
70532;SDS011;58088;51.186;17.130;2023-07-13T00:43:50;9.30;;;5.70;;
70532;SDS011;58088;51.186;17.130;2023-07-13T00:46:29;10.60;;;5.90;;
70532;SDS011;58088;51.186;17.130;2023-07-13T00:49:00;8.00;;;5.40;;
70532;SDS011;58088;51.186;17.130;2023-07-13T00:51:54;10.30;;;5.70;;
70532;SDS011;58088;51.186;17.130;2023-07-13T00:54:45;10.40;;;5.90;;
70532;SDS011;58088;51.186;17.130;2023-07-13T00:57:20;10.80;;;5.80;;
70532;SDS011;58088;51.186;17.130;2023-07-13T00:59:50;10.90;;;5.90;;
70532;SDS011;58088;51.186;17.130;2023-07-13T01:02:20;11.30;;;5.60;;
70532;SDS011;58088;51.186;17.130;2023-07-13T01:04:48;8.50;;;5.20;;
70532;SDS011;58088;51.186;17.130;2023-07-13T01:07:15;8.20;;;5.40;;
70532;SDS011;58088;51.186;17.130;2023-07-13T01:09:42;9.20;;;5.50;;
70532;SDS011;58088;51.186;17.130;2023-07-13T01:12:08;9.20;;;5.50;;
70532;SDS011;58088;51.186;17.130;2023-07-13T01:14:34;10.60;;;5.20;;
70532;SDS011;58088;51.186;17.130;2023-07-13T01:17:00;12.50;;;5.70;;
70532;SDS011;58088;51.186;17.130;2023-07-13T01:19:44;10.10;;;5.90;;
70532;SDS011;58088;51.186;17.130;2023-07-13T01:22:14;9.90;;;5.60;;
70532;SDS011;58088;51.186;17.130;2023-07-13T01:24:43;10.80;;;6.00;;
70532;SDS011;58088;51.186;17.130;2023-07-13T01:27:14;10.40;;;6.30;;
70532;SDS011;58088;51.186;17.130;2023-07-13T01:29:44;13.30;;;6.60;;
70532;SDS011;58088;51.186;17.130;2023-07-13T01:32:22;11.60;;;6.40;;
70532;SDS011;58088;51.186;17.130;2023-07-13T01:34:54;9.40;;;5.70;;
70532;SDS011;58088;51.186;17.130;2023-07-13T01:37:20;13.80;;;6.60;;
70532;SDS011;58088;51.186;17.130;2023-07-13T01:39:47;10.90;;;6.50;;
70532;SDS011;58088;51.186;17.130;2023-07-13T01:42:14;10.60;;;6.60;;
70532;SDS011;58088;51.186;17.130;2023-07-13T01:44:41;10.60;;;6.70;;
70532;SDS011;58088;51.186;17.130;2023-07-13T01:47:07;10.20;;;6.20;;
70532;SDS011;58088;51.186;17.130;2023-07-13T01:49:34;12.20;;;5.80;;
70532;SDS011;58088;51.186;17.130;2023-07-13T01:52:00;10.80;;;6.40;;
70532;SDS011;58088;51.186;17.130;2023-07-13T01:54:26;11.80;;;6.40;;
70532;SDS011;58088;51.186;17.130;2023-07-13T01:56:53;9.00;;;5.80;;
70532;SDS011;58088;51.186;17.130;2023-07-13T01:59:19;10.60;;;6.30;;
70532;SDS011;58088;51.186;17.130;2023-07-13T02:01:55;12.80;;;5.90;;
70532;SDS011;58088;51.186;17.130;2023-07-13T02:04:40;12.00;;;6.40;;
70532;SDS011;58088;51.186;17.130;2023-07-13T02:07:08;12.80;;;6.80;;
70532;SDS011;58088;51.186;17.130;2023-07-13T02:09:35;10.50;;;6.40;;
70532;SDS011;58088;51.186;17.130;2023-07-13T02:12:01;10.90;;;6.40;;
70532;SDS011;58088;51.186;17.130;2023-07-13T02:14:31;11.70;;;6.50;;
70532;SDS011;58088;51.186;17.130;2023-07-13T02:16:57;10.60;;;6.50;;
70532;SDS011;58088;51.186;17.130;2023-07-13T02:19:23;12.90;;;7.20;;
70532;SDS011;58088;51.186;17.130;2023-07-13T02:21:50;11.30;;;6.30;;
70532;SDS011;58088;51.186;17.130;2023-07-13T02:24:17;9.40;;;6.00;;
70532;SDS011;58088;51.186;17.130;2023-07-13T02:26:45;10.40;;;6.20;;
70532;SDS011;58088;51.186;17.130;2023-07-13T02:29:11;10.50;;;6.10;;
70532;SDS011;58088;51.186;17.130;2023-07-13T02:31:37;13.40;;;6.40;;
70532;SDS011;58088;51.186;17.130;2023-07-13T02:34:04;12.00;;;6.90;;
70532;SDS011;58088;51.186;17.130;2023-07-13T02:36:31;11.70;;;6.40;;
70532;SDS011;58088;51.186;17.130;2023-07-13T02:39:00;10.90;;;6.60;;
70532;SDS011;58088;51.186;17.130;2023-07-13T02:41:28;10.40;;;6.10;;
70532;SDS011;58088;51.186;17.130;2023-07-13T02:43:54;10.90;;;5.80;;
70532;SDS011;58088;51.186;17.130;2023-07-13T02:46:32;12.80;;;6.90;;
70532;SDS011;58088;51.186;17.130;2023-07-13T02:49:00;11.10;;;6.80;;
70532;SDS011;58088;51.186;17.130;2023-07-13T02:51:26;11.50;;;6.40;;
70532;SDS011;58088;51.186;17.130;2023-07-13T02:53:53;12.60;;;6.90;;
70532;SDS011;58088;51.186;17.130;2023-07-13T02:56:23;10.70;;;7.00;;
70532;SDS011;58088;51.186;17.130;2023-07-13T02:58:51;11.50;;;7.00;;
70532;SDS011;58088;51.186;17.130;2023-07-13T03:01:17;12.40;;;7.50;;
70532;SDS011;58088;51.186;17.130;2023-07-13T03:03:45;12.80;;;6.90;;
70532;SDS011;58088;51.186;17.130;2023-07-13T03:06:13;12.70;;;7.20;;
70532;SDS011;58088;51.186;17.130;2023-07-13T03:08:45;12.90;;;7.50;;
70532;SDS011;58088;51.186;17.130;2023-07-13T03:11:18;11.60;;;7.50;;
70532;SDS011;58088;51.186;17.130;2023-07-13T03:13:49;12.40;;;7.80;;
70532;SDS011;58088;51.186;17.130;2023-07-13T03:16:16;12.50;;;8.20;;
70532;SDS011;58088;51.186;17.130;2023-07-13T03:18:44;12.50;;;8.00;;
70532;SDS011;58088;51.186;17.130;2023-07-13T03:21:12;14.80;;;7.60;;
70532;SDS011;58088;51.186;17.130;2023-07-13T03:23:39;12.60;;;7.70;;
70532;SDS011;58088;51.186;17.130;2023-07-13T03:26:10;14.80;;;7.80;;
70532;SDS011;58088;51.186;17.130;2023-07-13T03:28:41;13.40;;;7.10;;
70532;SDS011;58088;51.186;17.130;2023-07-13T03:31:17;12.20;;;7.20;;
70532;SDS011;58088;51.186;17.130;2023-07-13T03:33:46;12.60;;;8.20;;
70532;SDS011;58088;51.186;17.130;2023-07-13T03:36:17;12.40;;;7.50;;
70532;SDS011;58088;51.186;17.130;2023-07-13T03:38:54;13.70;;;7.00;;
70532;SDS011;58088;51.186;17.130;2023-07-13T03:41:27;13.20;;;6.90;;
70532;SDS011;58088;51.186;17.130;2023-07-13T03:43:54;11.10;;;7.10;;
70532;SDS011;58088;51.186;17.130;2023-07-13T03:46:22;10.90;;;6.80;;
70532;SDS011;58088;51.186;17.130;2023-07-13T03:48:48;12.30;;;7.00;;
70532;SDS011;58088;51.186;17.130;2023-07-13T03:51:16;10.10;;;6.80;;
70532;SDS011;58088;51.186;17.130;2023-07-13T03:53:45;13.60;;;7.20;;
70532;SDS011;58088;51.186;17.130;2023-07-13T03:56:15;11.90;;;6.70;;
70532;SDS011;58088;51.186;17.130;2023-07-13T03:58:46;12.90;;;7.20;;
70532;SDS011;58088;51.186;17.130;2023-07-13T04:01:18;10.80;;;7.20;;
70532;SDS011;58088;51.186;17.130;2023-07-13T04:03:46;11.40;;;6.90;;
70532;SDS011;58088;51.186;17.130;2023-07-13T04:06:16;12.00;;;6.90;;
70532;SDS011;58088;51.186;17.130;2023-07-13T04:08:49;12.50;;;7.00;;
70532;SDS011;58088;51.186;17.130;2023-07-13T04:11:19;14.10;;;7.00;;
70532;SDS011;58088;51.186;17.130;2023-07-13T04:13:47;13.00;;;7.20;;
70532;SDS011;58088;51.186;17.130;2023-07-13T04:16:16;13.70;;;7.00;;
70532;SDS011;58088;51.186;17.130;2023-07-13T04:18:45;12.60;;;7.20;;
70532;SDS011;58088;51.186;17.130;2023-07-13T04:21:14;11.80;;;6.40;;
70532;SDS011;58088;51.186;17.130;2023-07-13T04:23:41;10.70;;;6.30;;
70532;SDS011;58088;51.186;17.130;2023-07-13T04:26:07;10.40;;;6.20;;
70532;SDS011;58088;51.186;17.130;2023-07-13T04:28:34;11.40;;;5.60;;
70532;SDS011;58088;51.186;17.130;2023-07-13T04:31:01;8.40;;;5.00;;
70532;SDS011;58088;51.186;17.130;2023-07-13T04:33:27;7.20;;;3.70;;
70532;SDS011;58088;51.186;17.130;2023-07-13T04:35:55;7.80;;;4.10;;
70532;SDS011;58088;51.186;17.130;2023-07-13T04:38:24;9.40;;;4.30;;
70532;SDS011;58088;51.186;17.130;2023-07-13T04:40:55;6.70;;;3.50;;
70532;SDS011;58088;51.186;17.130;2023-07-13T04:43:33;8.90;;;4.00;;
70532;SDS011;58088;51.186;17.130;2023-07-13T04:46:05;10.20;;;3.20;;
70532;SDS011;58088;51.186;17.130;2023-07-13T04:48:33;6.40;;;3.10;;
70532;SDS011;58088;51.186;17.130;2023-07-13T04:51:00;7.40;;;3.30;;
70532;SDS011;58088;51.186;17.130;2023-07-13T04:53:28;6.30;;;2.80;;
70532;SDS011;58088;51.186;17.130;2023-07-13T04:55:55;6.80;;;3.00;;
70532;SDS011;58088;51.186;17.130;2023-07-13T04:58:24;9.30;;;3.40;;
70532;SDS011;58088;51.186;17.130;2023-07-13T05:00:51;5.90;;;2.70;;
70532;SDS011;58088;51.186;17.130;2023-07-13T05:03:18;6.60;;;2.70;;
70532;SDS011;58088;51.186;17.130;2023-07-13T05:05:57;9.80;;;3.80;;
70532;SDS011;58088;51.186;17.130;2023-07-13T05:08:26;9.20;;;3.50;;
70532;SDS011;58088;51.186;17.130;2023-07-13T05:10:52;6.70;;;3.40;;
70532;SDS011;58088;51.186;17.130;2023-07-13T05:13:19;8.40;;;3.90;;
70532;SDS011;58088;51.186;17.130;2023-07-13T05:15:47;6.60;;;3.50;;
70532;SDS011;58088;51.186;17.130;2023-07-13T05:18:22;6.70;;;3.20;;
70532;SDS011;58088;51.186;17.130;2023-07-13T05:21:06;8.90;;;3.10;;
70532;SDS011;58088;51.186;17.130;2023-07-13T05:23:36;7.20;;;3.30;;
70532;SDS011;58088;51.186;17.130;2023-07-13T05:26:04;7.20;;;3.40;;
70532;SDS011;58088;51.186;17.130;2023-07-13T05:28:31;9.20;;;3.70;;
70532;SDS011;58088;51.186;17.130;2023-07-13T05:30:58;7.40;;;3.30;;
70532;SDS011;58088;51.186;17.130;2023-07-13T05:33:25;6.60;;;3.10;;
70532;SDS011;58088;51.186;17.130;2023-07-13T05:35:53;6.70;;;3.10;;
70532;SDS011;58088;51.186;17.130;2023-07-13T05:38:20;6.90;;;3.60;;
70532;SDS011;58088;51.186;17.130;2023-07-13T05:40:47;9.20;;;3.90;;
70532;SDS011;58088;51.186;17.130;2023-07-13T05:43:14;11.80;;;4.40;;
70532;SDS011;58088;51.186;17.130;2023-07-13T05:45:41;11.50;;;4.20;;
70532;SDS011;58088;51.186;17.130;2023-07-13T05:48:07;11.00;;;4.10;;
70532;SDS011;58088;51.186;17.130;2023-07-13T05:50:33;7.10;;;3.70;;
70532;SDS011;58088;51.186;17.130;2023-07-13T05:52:59;7.50;;;4.60;;
70532;SDS011;58088;51.186;17.130;2023-07-13T05:55:26;9.30;;;4.50;;
70532;SDS011;58088;51.186;17.130;2023-07-13T05:57:52;7.50;;;3.90;;
70532;SDS011;58088;51.186;17.130;2023-07-13T06:00:19;6.70;;;3.50;;
70532;SDS011;58088;51.186;17.130;2023-07-13T06:02:46;9.80;;;3.50;;
70532;SDS011;58088;51.186;17.130;2023-07-13T06:05:14;7.30;;;3.40;;
70532;SDS011;58088;51.186;17.130;2023-07-13T06:07:44;7.80;;;3.70;;
70532;SDS011;58088;51.186;17.130;2023-07-13T06:10:10;6.60;;;3.80;;
70532;SDS011;58088;51.186;17.130;2023-07-13T06:12:36;9.60;;;3.80;;
70532;SDS011;58088;51.186;17.130;2023-07-13T06:15:03;8.60;;;3.90;;
70532;SDS011;58088;51.186;17.130;2023-07-13T06:17:30;5.90;;;3.60;;
70532;SDS011;58088;51.186;17.130;2023-07-13T06:19:57;8.40;;;3.70;;
70532;SDS011;58088;51.186;17.130;2023-07-13T06:22:23;6.30;;;3.30;;
70532;SDS011;58088;51.186;17.130;2023-07-13T06:24:49;6.20;;;3.20;;
70532;SDS011;58088;51.186;17.130;2023-07-13T06:27:15;10.10;;;3.50;;
70532;SDS011;58088;51.186;17.130;2023-07-13T06:29:42;7.20;;;3.00;;
70532;SDS011;58088;51.186;17.130;2023-07-13T06:32:11;7.40;;;3.00;;
70532;SDS011;58088;51.186;17.130;2023-07-13T06:34:37;5.30;;;3.10;;
70532;SDS011;58088;51.186;17.130;2023-07-13T06:37:04;7.20;;;3.10;;
70532;SDS011;58088;51.186;17.130;2023-07-13T06:39:31;5.40;;;2.60;;
70532;SDS011;58088;51.186;17.130;2023-07-13T06:41:57;8.20;;;3.40;;
70532;SDS011;58088;51.186;17.130;2023-07-13T06:44:23;5.80;;;3.20;;
70532;SDS011;58088;51.186;17.130;2023-07-13T06:46:50;5.90;;;2.90;;
70532;SDS011;58088;51.186;17.130;2023-07-13T06:49:16;6.50;;;2.70;;
70532;SDS011;58088;51.186;17.130;2023-07-13T06:51:42;6.70;;;2.80;;
70532;SDS011;58088;51.186;17.130;2023-07-13T06:54:08;5.10;;;2.50;;
70532;SDS011;58088;51.186;17.130;2023-07-13T06:56:35;5.90;;;2.60;;
70532;SDS011;58088;51.186;17.130;2023-07-13T06:59:01;5.20;;;2.40;;
70532;SDS011;58088;51.186;17.130;2023-07-13T07:01:27;7.30;;;2.60;;
70532;SDS011;58088;51.186;17.130;2023-07-13T07:03:54;4.90;;;2.80;;
70532;SDS011;58088;51.186;17.130;2023-07-13T07:06:21;6.90;;;3.00;;
70532;SDS011;58088;51.186;17.130;2023-07-13T07:08:52;5.50;;;2.70;;
70532;SDS011;58088;51.186;17.130;2023-07-13T07:11:21;8.60;;;3.70;;
70532;SDS011;58088;51.186;17.130;2023-07-13T07:13:50;7.10;;;3.70;;
70532;SDS011;58088;51.186;17.130;2023-07-13T07:16:19;8.10;;;3.70;;
70532;SDS011;58088;51.186;17.130;2023-07-13T07:18:47;7.60;;;3.50;;
70532;SDS011;58088;51.186;17.130;2023-07-13T07:21:14;7.10;;;3.70;;
70532;SDS011;58088;51.186;17.130;2023-07-13T07:23:40;8.90;;;4.20;;
70532;SDS011;58088;51.186;17.130;2023-07-13T07:26:08;8.40;;;4.30;;
70532;SDS011;58088;51.186;17.130;2023-07-13T07:28:35;6.80;;;4.30;;
70532;SDS011;58088;51.186;17.130;2023-07-13T07:31:02;9.70;;;4.50;;
70532;SDS011;58088;51.186;17.130;2023-07-13T07:33:28;8.60;;;4.30;;
70532;SDS011;58088;51.186;17.130;2023-07-13T07:35:54;8.30;;;4.90;;
70532;SDS011;58088;51.186;17.130;2023-07-13T07:38:20;7.00;;;4.50;;
70532;SDS011;58088;51.186;17.130;2023-07-13T07:40:47;11.10;;;4.40;;
70532;SDS011;58088;51.186;17.130;2023-07-13T07:43:13;8.60;;;4.30;;
70532;SDS011;58088;51.186;17.130;2023-07-13T07:45:40;8.10;;;4.10;;
70532;SDS011;58088;51.186;17.130;2023-07-13T07:48:08;7.90;;;4.40;;
70532;SDS011;58088;51.186;17.130;2023-07-13T07:50:35;10.70;;;4.70;;
70532;SDS011;58088;51.186;17.130;2023-07-13T07:53:03;10.30;;;5.90;;
70532;SDS011;58088;51.186;17.130;2023-07-13T07:55:34;10.80;;;5.50;;
70532;SDS011;58088;51.186;17.130;2023-07-13T07:58:04;10.30;;;5.40;;
70532;SDS011;58088;51.186;17.130;2023-07-13T08:00:31;10.00;;;5.10;;
70532;SDS011;58088;51.186;17.130;2023-07-13T08:02:58;8.70;;;5.00;;
70532;SDS011;58088;51.186;17.130;2023-07-13T08:05:25;10.50;;;4.40;;
70532;SDS011;58088;51.186;17.130;2023-07-13T08:07:52;10.40;;;4.60;;
70532;SDS011;58088;51.186;17.130;2023-07-13T08:10:18;7.50;;;4.10;;
70532;SDS011;58088;51.186;17.130;2023-07-13T08:12:44;8.70;;;4.70;;
70532;SDS011;58088;51.186;17.130;2023-07-13T08:15:14;7.10;;;3.90;;
70532;SDS011;58088;51.186;17.130;2023-07-13T08:17:41;8.80;;;4.40;;
70532;SDS011;58088;51.186;17.130;2023-07-13T08:20:09;10.30;;;4.10;;
70532;SDS011;58088;51.186;17.130;2023-07-13T08:22:35;7.30;;;4.40;;
70532;SDS011;58088;51.186;17.130;2023-07-13T08:25:02;9.50;;;4.90;;
70532;SDS011;58088;51.186;17.130;2023-07-13T08:27:28;11.00;;;4.80;;
70532;SDS011;58088;51.186;17.130;2023-07-13T08:29:55;7.20;;;4.20;;
70532;SDS011;58088;51.186;17.130;2023-07-13T08:32:22;8.80;;;4.60;;
70532;SDS011;58088;51.186;17.130;2023-07-13T08:34:49;8.60;;;4.70;;
70532;SDS011;58088;51.186;17.130;2023-07-13T08:37:17;9.90;;;5.10;;
70532;SDS011;58088;51.186;17.130;2023-07-13T08:39:44;9.20;;;4.40;;
70532;SDS011;58088;51.186;17.130;2023-07-13T08:48:20;8.00;;;4.30;;
70532;SDS011;58088;51.186;17.130;2023-07-13T08:51:01;7.30;;;4.60;;
70532;SDS011;58088;51.186;17.130;2023-07-13T08:53:49;7.70;;;5.00;;
70532;SDS011;58088;51.186;17.130;2023-07-13T08:56:28;7.60;;;4.70;;
70532;SDS011;58088;51.186;17.130;2023-07-13T08:59:03;7.90;;;4.60;;
70532;SDS011;58088;51.186;17.130;2023-07-13T09:04:50;8.70;;;5.10;;
70532;SDS011;58088;51.186;17.130;2023-07-13T09:07:58;7.70;;;4.60;;
70532;SDS011;58088;51.186;17.130;2023-07-13T09:10:52;6.70;;;4.20;;
70532;SDS011;58088;51.186;17.130;2023-07-13T09:13:51;8.70;;;4.40;;
70532;SDS011;58088;51.186;17.130;2023-07-13T09:16:33;6.60;;;4.10;;
70532;SDS011;58088;51.186;17.130;2023-07-13T09:19:04;7.70;;;4.10;;
70532;SDS011;58088;51.186;17.130;2023-07-13T09:21:37;7.10;;;4.20;;
70532;SDS011;58088;51.186;17.130;2023-07-13T09:26:49;6.60;;;4.00;;
70532;SDS011;58088;51.186;17.130;2023-07-13T09:29:26;7.40;;;3.90;;
70532;SDS011;58088;51.186;17.130;2023-07-13T09:31:58;8.20;;;3.90;;
70532;SDS011;58088;51.186;17.130;2023-07-13T09:34:30;6.30;;;3.20;;
70532;SDS011;58088;51.186;17.130;2023-07-13T09:36:59;5.90;;;3.30;;
70532;SDS011;58088;51.186;17.130;2023-07-13T09:39:33;6.70;;;3.40;;
70532;SDS011;58088;51.186;17.130;2023-07-13T09:44:58;9.20;;;3.20;;
70532;SDS011;58088;51.186;17.130;2023-07-13T09:47:39;6.60;;;3.20;;
70532;SDS011;58088;51.186;17.130;2023-07-13T09:50:09;5.40;;;2.60;;
70532;SDS011;58088;51.186;17.130;2023-07-13T09:52:41;8.00;;;3.80;;
70532;SDS011;58088;51.186;17.130;2023-07-13T09:55:37;7.60;;;3.80;;
70532;SDS011;58088;51.186;17.130;2023-07-13T09:58:18;6.00;;;3.60;;
70532;SDS011;58088;51.186;17.130;2023-07-13T10:00:56;7.40;;;3.80;;
70532;SDS011;58088;51.186;17.130;2023-07-13T10:03:30;6.70;;;3.80;;
70532;SDS011;58088;51.186;17.130;2023-07-13T10:06:12;8.60;;;3.50;;
70532;SDS011;58088;51.186;17.130;2023-07-13T10:08:40;9.50;;;3.70;;
70532;SDS011;58088;51.186;17.130;2023-07-13T10:13:52;8.30;;;4.10;;
70532;SDS011;58088;51.186;17.130;2023-07-13T10:16:24;6.70;;;3.90;;
70532;SDS011;58088;51.186;17.130;2023-07-13T10:19:05;8.30;;;3.50;;
70532;SDS011;58088;51.186;17.130;2023-07-13T10:21:44;6.60;;;3.60;;
70532;SDS011;58088;51.186;17.130;2023-07-13T10:24:23;7.00;;;3.50;;
70532;SDS011;58088;51.186;17.130;2023-07-13T10:29:52;4.10;;;2.40;;
70532;SDS011;58088;51.186;17.130;2023-07-13T10:32:23;5.50;;;2.80;;
70532;SDS011;58088;51.186;17.130;2023-07-13T10:34:50;5.60;;;3.00;;
70532;SDS011;58088;51.186;17.130;2023-07-13T10:37:26;5.20;;;3.00;;
70532;SDS011;58088;51.186;17.130;2023-07-13T10:39:56;5.20;;;2.60;;
70532;SDS011;58088;51.186;17.130;2023-07-13T10:42:35;5.20;;;2.40;;
70532;SDS011;58088;51.186;17.130;2023-07-13T10:45:18;4.70;;;2.50;;
70532;SDS011;58088;51.186;17.130;2023-07-13T10:47:46;4.40;;;2.50;;
70532;SDS011;58088;51.186;17.130;2023-07-13T10:50:19;5.50;;;2.20;;
70532;SDS011;58088;51.186;17.130;2023-07-13T10:52:50;5.00;;;2.60;;
70532;SDS011;58088;51.186;17.130;2023-07-13T10:55:40;3.90;;;2.20;;
70532;SDS011;58088;51.186;17.130;2023-07-13T11:18:48;5.50;;;2.40;;
70532;SDS011;58088;51.186;17.130;2023-07-13T11:24:59;4.10;;;1.90;;
70532;SDS011;58088;51.186;17.130;2023-07-13T11:33:25;4.70;;;2.30;;
70532;SDS011;58088;51.186;17.130;2023-07-13T11:38:40;5.20;;;2.60;;
70532;SDS011;58088;51.186;17.130;2023-07-13T11:41:17;4.20;;;2.30;;
70532;SDS011;58088;51.186;17.130;2023-07-13T11:43:53;5.80;;;2.30;;
70532;SDS011;58088;51.186;17.130;2023-07-13T11:46:22;4.30;;;2.50;;
70532;SDS011;58088;51.186;17.130;2023-07-13T11:48:51;4.30;;;2.50;;
70532;SDS011;58088;51.186;17.130;2023-07-13T11:51:28;4.70;;;2.50;;
70532;SDS011;58088;51.186;17.130;2023-07-13T11:54:06;5.20;;;2.50;;
70532;SDS011;58088;51.186;17.130;2023-07-13T11:56:55;6.20;;;2.30;;
70532;SDS011;58088;51.186;17.130;2023-07-13T11:59:24;4.50;;;2.20;;
70532;SDS011;58088;51.186;17.130;2023-07-13T12:01:52;4.60;;;2.30;;
70532;SDS011;58088;51.186;17.130;2023-07-13T12:04:27;4.30;;;2.40;;
70532;SDS011;58088;51.186;17.130;2023-07-13T12:07:05;4.50;;;2.30;;
70532;SDS011;58088;51.186;17.130;2023-07-13T12:09:35;3.50;;;2.10;;
70532;SDS011;58088;51.186;17.130;2023-07-13T12:12:16;3.90;;;2.20;;
70532;SDS011;58088;51.186;17.130;2023-07-13T12:14:44;4.30;;;2.10;;
70532;SDS011;58088;51.186;17.130;2023-07-13T12:17:22;4.10;;;2.10;;
70532;SDS011;58088;51.186;17.130;2023-07-13T12:19:51;5.30;;;2.30;;
70532;SDS011;58088;51.186;17.130;2023-07-13T12:22:20;4.30;;;2.10;;
70532;SDS011;58088;51.186;17.130;2023-07-13T12:24:49;3.20;;;1.90;;
70532;SDS011;58088;51.186;17.130;2023-07-13T12:27:19;4.20;;;2.10;;
70532;SDS011;58088;51.186;17.130;2023-07-13T12:30:29;4.90;;;2.10;;
70532;SDS011;58088;51.186;17.130;2023-07-13T12:33:10;5.70;;;2.50;;
70532;SDS011;58088;51.186;17.130;2023-07-13T12:35:47;4.70;;;2.10;;
70532;SDS011;58088;51.186;17.130;2023-07-13T12:38:16;6.00;;;2.30;;
70532;SDS011;58088;51.186;17.130;2023-07-13T12:40:43;3.50;;;2.00;;
70532;SDS011;58088;51.186;17.130;2023-07-13T12:43:13;5.60;;;2.20;;
70532;SDS011;58088;51.186;17.130;2023-07-13T12:46:02;3.70;;;2.10;;
70532;SDS011;58088;51.186;17.130;2023-07-13T12:48:43;4.10;;;2.30;;
70532;SDS011;58088;51.186;17.130;2023-07-13T12:51:13;4.50;;;2.20;;
70532;SDS011;58088;51.186;17.130;2023-07-13T12:53:42;5.00;;;2.60;;
70532;SDS011;58088;51.186;17.130;2023-07-13T12:56:22;4.00;;;2.40;;
70532;SDS011;58088;51.186;17.130;2023-07-13T12:58:57;5.80;;;2.50;;
70532;SDS011;58088;51.186;17.130;2023-07-13T13:01:28;5.30;;;2.60;;
70532;SDS011;58088;51.186;17.130;2023-07-13T13:04:01;3.90;;;2.40;;
70532;SDS011;58088;51.186;17.130;2023-07-13T13:06:34;4.10;;;2.10;;
70532;SDS011;58088;51.186;17.130;2023-07-13T13:09:02;4.60;;;2.40;;
70532;SDS011;58088;51.186;17.130;2023-07-13T13:11:31;6.90;;;2.50;;
70532;SDS011;58088;51.186;17.130;2023-07-13T13:13:57;4.40;;;2.40;;
70532;SDS011;58088;51.186;17.130;2023-07-13T13:16:35;4.50;;;2.20;;
70532;SDS011;58088;51.186;17.130;2023-07-13T13:19:18;5.40;;;2.20;;
70532;SDS011;58088;51.186;17.130;2023-07-13T13:21:54;3.70;;;1.60;;
70532;SDS011;58088;51.186;17.130;2023-07-13T13:24:24;4.20;;;2.10;;
70532;SDS011;58088;51.186;17.130;2023-07-13T13:26:53;7.00;;;2.20;;
70532;SDS011;58088;51.186;17.130;2023-07-13T13:29:23;4.60;;;2.20;;
70532;SDS011;58088;51.186;17.130;2023-07-13T13:31:51;5.70;;;2.20;;
70532;SDS011;58088;51.186;17.130;2023-07-13T13:34:19;4.30;;;2.20;;
70532;SDS011;58088;51.186;17.130;2023-07-13T13:36:47;4.50;;;2.10;;
70532;SDS011;58088;51.186;17.130;2023-07-13T13:39:36;3.70;;;2.20;;
70532;SDS011;58088;51.186;17.130;2023-07-13T13:42:04;6.00;;;2.10;;
70532;SDS011;58088;51.186;17.130;2023-07-13T13:44:31;5.00;;;2.60;;
70532;SDS011;58088;51.186;17.130;2023-07-13T13:46:57;5.50;;;2.10;;
70532;SDS011;58088;51.186;17.130;2023-07-13T13:49:25;5.20;;;2.30;;
70532;SDS011;58088;51.186;17.130;2023-07-13T13:51:53;4.90;;;2.00;;
70532;SDS011;58088;51.186;17.130;2023-07-13T13:54:21;4.80;;;2.10;;
70532;SDS011;58088;51.186;17.130;2023-07-13T13:56:51;3.20;;;1.80;;
70532;SDS011;58088;51.186;17.130;2023-07-13T13:59:19;5.50;;;2.10;;
70532;SDS011;58088;51.186;17.130;2023-07-13T14:01:47;4.20;;;2.00;;
70532;SDS011;58088;51.186;17.130;2023-07-13T14:04:18;3.90;;;1.80;;
70532;SDS011;58088;51.186;17.130;2023-07-13T14:06:46;4.80;;;1.80;;
70532;SDS011;58088;51.186;17.130;2023-07-13T14:09:15;4.00;;;1.90;;
70532;SDS011;58088;51.186;17.130;2023-07-13T14:11:44;4.50;;;1.80;;
70532;SDS011;58088;51.186;17.130;2023-07-13T14:14:16;4.20;;;1.80;;
70532;SDS011;58088;51.186;17.130;2023-07-13T14:16:48;4.90;;;1.70;;
70532;SDS011;58088;51.186;17.130;2023-07-13T14:19:19;3.90;;;2.00;;
70532;SDS011;58088;51.186;17.130;2023-07-13T14:21:45;3.50;;;1.90;;
70532;SDS011;58088;51.186;17.130;2023-07-13T14:24:13;3.40;;;1.90;;
70532;SDS011;58088;51.186;17.130;2023-07-13T14:26:41;4.40;;;2.10;;
70532;SDS011;58088;51.186;17.130;2023-07-13T14:29:14;4.70;;;2.10;;
70532;SDS011;58088;51.186;17.130;2023-07-13T14:31:44;4.30;;;1.80;;
70532;SDS011;58088;51.186;17.130;2023-07-13T14:34:11;6.60;;;2.00;;
70532;SDS011;58088;51.186;17.130;2023-07-13T14:36:45;4.80;;;2.10;;
70532;SDS011;58088;51.186;17.130;2023-07-13T14:39:20;4.80;;;1.80;;
70532;SDS011;58088;51.186;17.130;2023-07-13T14:41:53;4.80;;;1.70;;
70532;SDS011;58088;51.186;17.130;2023-07-13T14:44:26;3.50;;;1.90;;
70532;SDS011;58088;51.186;17.130;2023-07-13T14:46:57;3.90;;;1.60;;
70532;SDS011;58088;51.186;17.130;2023-07-13T14:49:29;6.40;;;2.00;;
70532;SDS011;58088;51.186;17.130;2023-07-13T14:52:08;4.30;;;1.80;;
70532;SDS011;58088;51.186;17.130;2023-07-13T14:54:38;4.20;;;2.10;;
70532;SDS011;58088;51.186;17.130;2023-07-13T14:57:14;5.10;;;2.20;;
70532;SDS011;58088;51.186;17.130;2023-07-13T14:59:42;3.20;;;1.70;;
70532;SDS011;58088;51.186;17.130;2023-07-13T15:02:17;4.10;;;1.80;;
70532;SDS011;58088;51.186;17.130;2023-07-13T15:04:51;4.00;;;1.60;;
70532;SDS011;58088;51.186;17.130;2023-07-13T15:07:17;3.50;;;1.80;;
70532;SDS011;58088;51.186;17.130;2023-07-13T15:09:44;3.50;;;1.70;;
70532;SDS011;58088;51.186;17.130;2023-07-13T15:12:11;5.30;;;1.70;;
70532;SDS011;58088;51.186;17.130;2023-07-13T15:14:38;3.60;;;1.90;;
70532;SDS011;58088;51.186;17.130;2023-07-13T15:17:08;4.90;;;2.00;;
70532;SDS011;58088;51.186;17.130;2023-07-13T15:19:51;3.50;;;1.70;;
70532;SDS011;58088;51.186;17.130;2023-07-13T15:22:18;5.20;;;2.50;;
70532;SDS011;58088;51.186;17.130;2023-07-13T15:24:45;4.60;;;2.30;;
70532;SDS011;58088;51.186;17.130;2023-07-13T15:27:12;5.50;;;2.80;;
70532;SDS011;58088;51.186;17.130;2023-07-13T15:29:39;5.10;;;2.60;;
70532;SDS011;58088;51.186;17.130;2023-07-13T15:32:14;4.20;;;2.30;;
70532;SDS011;58088;51.186;17.130;2023-07-13T15:34:40;5.00;;;2.50;;
70532;SDS011;58088;51.186;17.130;2023-07-13T15:37:16;4.30;;;2.50;;
70532;SDS011;58088;51.186;17.130;2023-07-13T15:39:43;5.70;;;2.50;;
70532;SDS011;58088;51.186;17.130;2023-07-13T15:42:16;3.70;;;2.20;;
70532;SDS011;58088;51.186;17.130;2023-07-13T15:44:45;5.40;;;2.60;;